sensor_id;sensor_type;location;lat;lon;timestamp;P1;durP1;ratioP1;P2;durP2;ratioP2
20423;SDS011;10371;49.042;8.002;2022-12-07T00:00:43;6.83;;;6.23;;
20423;SDS011;10371;49.042;8.002;2022-12-07T00:01:44;7.10;;;6.40;;
20423;SDS011;10371;49.042;8.002;2022-12-07T00:02:45;7.47;;;6.77;;
20423;SDS011;10371;49.042;8.002;2022-12-07T00:03:46;7.40;;;6.70;;
20423;SDS011;10371;49.042;8.002;2022-12-07T00:04:48;7.17;;;6.47;;
20423;SDS011;10371;49.042;8.002;2022-12-07T00:05:49;7.43;;;6.80;;
20423;SDS011;10371;49.042;8.002;2022-12-07T00:06:51;7.03;;;6.43;;
20423;SDS011;10371;49.042;8.002;2022-12-07T00:07:52;7.27;;;6.57;;
20423;SDS011;10371;49.042;8.002;2022-12-07T00:08:52;7.00;;;6.40;;
20423;SDS011;10371;49.042;8.002;2022-12-07T00:09:53;7.87;;;7.17;;
20423;SDS011;10371;49.042;8.002;2022-12-07T00:10:53;7.30;;;6.73;;
20423;SDS011;10371;49.042;8.002;2022-12-07T00:11:53;7.00;;;6.40;;
20423;SDS011;10371;49.042;8.002;2022-12-07T00:12:53;8.27;;;7.47;;
20423;SDS011;10371;49.042;8.002;2022-12-07T00:13:54;8.43;;;7.63;;
20423;SDS011;10371;49.042;8.002;2022-12-07T00:14:57;7.73;;;6.93;;
20423;SDS011;10371;49.042;8.002;2022-12-07T00:16:07;7.57;;;6.97;;
20423;SDS011;10371;49.042;8.002;2022-12-07T00:17:10;7.80;;;7.00;;
20423;SDS011;10371;49.042;8.002;2022-12-07T00:18:10;7.77;;;7.07;;
20423;SDS011;10371;49.042;8.002;2022-12-07T00:19:11;7.47;;;6.87;;
20423;SDS011;10371;49.042;8.002;2022-12-07T00:20:13;7.90;;;7.10;;
20423;SDS011;10371;49.042;8.002;2022-12-07T00:21:15;7.60;;;6.90;;
20423;SDS011;10371;49.042;8.002;2022-12-07T00:22:16;7.50;;;6.80;;
20423;SDS011;10371;49.042;8.002;2022-12-07T00:23:17;7.07;;;6.47;;
20423;SDS011;10371;49.042;8.002;2022-12-07T00:24:17;7.67;;;7.07;;
20423;SDS011;10371;49.042;8.002;2022-12-07T00:25:17;7.80;;;7.07;;
20423;SDS011;10371;49.042;8.002;2022-12-07T00:26:18;6.93;;;6.33;;
20423;SDS011;10371;49.042;8.002;2022-12-07T00:27:21;8.33;;;7.63;;
20423;SDS011;10371;49.042;8.002;2022-12-07T00:28:21;8.90;;;8.00;;
20423;SDS011;10371;49.042;8.002;2022-12-07T00:29:21;9.10;;;8.10;;
20423;SDS011;10371;49.042;8.002;2022-12-07T00:30:23;10.03;;;9.13;;
20423;SDS011;10371;49.042;8.002;2022-12-07T00:31:25;9.97;;;8.97;;
20423;SDS011;10371;49.042;8.002;2022-12-07T00:32:29;9.47;;;8.57;;
20423;SDS011;10371;49.042;8.002;2022-12-07T00:33:30;9.50;;;8.60;;
20423;SDS011;10371;49.042;8.002;2022-12-07T00:34:30;9.83;;;8.83;;
20423;SDS011;10371;49.042;8.002;2022-12-07T00:35:30;9.20;;;8.30;;
20423;SDS011;10371;49.042;8.002;2022-12-07T00:36:30;8.00;;;7.30;;
20423;SDS011;10371;49.042;8.002;2022-12-07T00:37:31;7.97;;;7.17;;
20423;SDS011;10371;49.042;8.002;2022-12-07T00:38:32;7.13;;;6.53;;
20423;SDS011;10371;49.042;8.002;2022-12-07T00:39:33;7.27;;;6.57;;
20423;SDS011;10371;49.042;8.002;2022-12-07T00:40:33;7.10;;;6.40;;
20423;SDS011;10371;49.042;8.002;2022-12-07T00:41:34;7.07;;;6.43;;
20423;SDS011;10371;49.042;8.002;2022-12-07T00:42:34;6.80;;;6.20;;
20423;SDS011;10371;49.042;8.002;2022-12-07T00:43:35;7.43;;;6.73;;
20423;SDS011;10371;49.042;8.002;2022-12-07T00:44:35;6.90;;;6.30;;
20423;SDS011;10371;49.042;8.002;2022-12-07T00:45:35;7.93;;;7.13;;
20423;SDS011;10371;49.042;8.002;2022-12-07T00:46:35;7.77;;;6.97;;
20423;SDS011;10371;49.042;8.002;2022-12-07T00:47:36;7.97;;;7.10;;
20423;SDS011;10371;49.042;8.002;2022-12-07T00:48:36;7.87;;;7.17;;
20423;SDS011;10371;49.042;8.002;2022-12-07T00:49:36;7.87;;;7.07;;
20423;SDS011;10371;49.042;8.002;2022-12-07T00:50:37;7.73;;;6.87;;
20423;SDS011;10371;49.042;8.002;2022-12-07T00:51:37;8.17;;;7.43;;
20423;SDS011;10371;49.042;8.002;2022-12-07T00:52:37;8.40;;;7.60;;
20423;SDS011;10371;49.042;8.002;2022-12-07T00:53:38;8.10;;;7.30;;
20423;SDS011;10371;49.042;8.002;2022-12-07T00:54:39;7.43;;;6.77;;
20423;SDS011;10371;49.042;8.002;2022-12-07T00:55:40;7.77;;;7.07;;
20423;SDS011;10371;49.042;8.002;2022-12-07T00:56:40;7.93;;;7.23;;
20423;SDS011;10371;49.042;8.002;2022-12-07T00:57:40;8.30;;;7.50;;
20423;SDS011;10371;49.042;8.002;2022-12-07T00:58:40;8.10;;;7.40;;
20423;SDS011;10371;49.042;8.002;2022-12-07T00:59:41;8.10;;;7.40;;
20423;SDS011;10371;49.042;8.002;2022-12-07T01:00:42;7.67;;;6.97;;
20423;SDS011;10371;49.042;8.002;2022-12-07T01:01:43;7.73;;;7.03;;
20423;SDS011;10371;49.042;8.002;2022-12-07T01:02:43;7.73;;;7.03;;
20423;SDS011;10371;49.042;8.002;2022-12-07T01:03:43;7.97;;;7.27;;
20423;SDS011;10371;49.042;8.002;2022-12-07T01:04:43;7.67;;;6.97;;
20423;SDS011;10371;49.042;8.002;2022-12-07T01:05:50;7.77;;;6.97;;
20423;SDS011;10371;49.042;8.002;2022-12-07T01:06:52;8.17;;;7.37;;
20423;SDS011;10371;49.042;8.002;2022-12-07T01:07:52;7.97;;;7.27;;
20423;SDS011;10371;49.042;8.002;2022-12-07T01:08:53;7.60;;;6.90;;
20423;SDS011;10371;49.042;8.002;2022-12-07T01:09:54;8.40;;;7.60;;
20423;SDS011;10371;49.042;8.002;2022-12-07T01:10:57;10.20;;;9.10;;
20423;SDS011;10371;49.042;8.002;2022-12-07T01:11:59;8.53;;;7.80;;
20423;SDS011;10371;49.042;8.002;2022-12-07T01:12:59;9.17;;;8.27;;
20423;SDS011;10371;49.042;8.002;2022-12-07T01:14:00;9.00;;;8.10;;
20423;SDS011;10371;49.042;8.002;2022-12-07T01:15:00;8.03;;;7.33;;
20423;SDS011;10371;49.042;8.002;2022-12-07T01:16:02;8.27;;;7.47;;
20423;SDS011;10371;49.042;8.002;2022-12-07T01:17:04;8.20;;;7.30;;
20423;SDS011;10371;49.042;8.002;2022-12-07T01:18:05;8.00;;;7.20;;
20423;SDS011;10371;49.042;8.002;2022-12-07T01:19:05;8.13;;;7.43;;
20423;SDS011;10371;49.042;8.002;2022-12-07T01:20:05;7.87;;;7.17;;
20423;SDS011;10371;49.042;8.002;2022-12-07T01:21:39;8.33;;;7.57;;
20423;SDS011;10371;49.042;8.002;2022-12-07T01:22:37;7.47;;;6.77;;
20423;SDS011;10371;49.042;8.002;2022-12-07T01:23:39;7.50;;;6.80;;
20423;SDS011;10371;49.042;8.002;2022-12-07T01:24:39;10.63;;;9.53;;
20423;SDS011;10371;49.042;8.002;2022-12-07T01:25:40;11.63;;;8.97;;
20423;SDS011;10371;49.042;8.002;2022-12-07T01:26:40;9.10;;;8.23;;
20423;SDS011;10371;49.042;8.002;2022-12-07T01:27:41;9.07;;;8.17;;
20423;SDS011;10371;49.042;8.002;2022-12-07T01:28:41;9.43;;;8.17;;
20423;SDS011;10371;49.042;8.002;2022-12-07T01:29:41;8.57;;;7.77;;
20423;SDS011;10371;49.042;8.002;2022-12-07T01:30:42;8.07;;;7.27;;
20423;SDS011;10371;49.042;8.002;2022-12-07T01:31:42;8.57;;;7.77;;
20423;SDS011;10371;49.042;8.002;2022-12-07T01:32:42;8.03;;;7.30;;
20423;SDS011;10371;49.042;8.002;2022-12-07T01:33:44;7.73;;;7.03;;
20423;SDS011;10371;49.042;8.002;2022-12-07T01:34:47;8.27;;;7.53;;
20423;SDS011;10371;49.042;8.002;2022-12-07T01:35:48;7.60;;;6.90;;
20423;SDS011;10371;49.042;8.002;2022-12-07T01:36:48;7.97;;;7.27;;
20423;SDS011;10371;49.042;8.002;2022-12-07T01:37:48;7.97;;;7.23;;
20423;SDS011;10371;49.042;8.002;2022-12-07T01:38:51;8.33;;;7.53;;
20423;SDS011;10371;49.042;8.002;2022-12-07T01:39:53;8.60;;;7.70;;
20423;SDS011;10371;49.042;8.002;2022-12-07T01:40:54;8.67;;;7.87;;
20423;SDS011;10371;49.042;8.002;2022-12-07T01:41:56;8.60;;;7.70;;
20423;SDS011;10371;49.042;8.002;2022-12-07T01:42:56;8.90;;;8.03;;
20423;SDS011;10371;49.042;8.002;2022-12-07T01:46:17;8.07;;;7.30;;
20423;SDS011;10371;49.042;8.002;2022-12-07T01:47:17;9.27;;;7.60;;
20423;SDS011;10371;49.042;8.002;2022-12-07T01:48:18;8.60;;;7.80;;
20423;SDS011;10371;49.042;8.002;2022-12-07T01:50:45;8.60;;;7.80;;
20423;SDS011;10371;49.042;8.002;2022-12-07T01:51:48;9.10;;;8.23;;
20423;SDS011;10371;49.042;8.002;2022-12-07T01:52:51;8.83;;;8.03;;
20423;SDS011;10371;49.042;8.002;2022-12-07T01:53:55;8.53;;;7.73;;
20423;SDS011;10371;49.042;8.002;2022-12-07T01:54:57;9.00;;;8.10;;
20423;SDS011;10371;49.042;8.002;2022-12-07T01:56:03;9.07;;;8.10;;
20423;SDS011;10371;49.042;8.002;2022-12-07T01:57:04;8.60;;;7.80;;
20423;SDS011;10371;49.042;8.002;2022-12-07T01:58:06;8.10;;;7.40;;
20423;SDS011;10371;49.042;8.002;2022-12-07T01:59:07;7.57;;;6.87;;
20423;SDS011;10371;49.042;8.002;2022-12-07T02:00:09;8.20;;;7.40;;
20423;SDS011;10371;49.042;8.002;2022-12-07T02:01:10;8.60;;;7.70;;
20423;SDS011;10371;49.042;8.002;2022-12-07T02:02:13;9.23;;;8.23;;
20423;SDS011;10371;49.042;8.002;2022-12-07T02:03:19;8.10;;;7.30;;
20423;SDS011;10371;49.042;8.002;2022-12-07T02:04:24;8.07;;;7.27;;
20423;SDS011;10371;49.042;8.002;2022-12-07T02:05:25;9.40;;;7.20;;
20423;SDS011;10371;49.042;8.002;2022-12-07T02:06:26;8.03;;;7.23;;
20423;SDS011;10371;49.042;8.002;2022-12-07T02:07:27;7.77;;;7.07;;
20423;SDS011;10371;49.042;8.002;2022-12-07T02:08:28;8.03;;;7.33;;
20423;SDS011;10371;49.042;8.002;2022-12-07T02:09:28;8.00;;;7.27;;
20423;SDS011;10371;49.042;8.002;2022-12-07T02:10:29;7.57;;;6.77;;
20423;SDS011;10371;49.042;8.002;2022-12-07T02:11:31;7.53;;;6.83;;
20423;SDS011;10371;49.042;8.002;2022-12-07T02:12:31;7.63;;;6.93;;
20423;SDS011;10371;49.042;8.002;2022-12-07T02:13:32;7.80;;;7.00;;
20423;SDS011;10371;49.042;8.002;2022-12-07T02:14:34;7.47;;;6.77;;
20423;SDS011;10371;49.042;8.002;2022-12-07T02:15:47;7.63;;;6.93;;
20423;SDS011;10371;49.042;8.002;2022-12-07T02:17:21;7.23;;;6.63;;
20423;SDS011;10371;49.042;8.002;2022-12-07T02:18:53;7.60;;;6.90;;
20423;SDS011;10371;49.042;8.002;2022-12-07T02:20:21;7.00;;;6.40;;
20423;SDS011;10371;49.042;8.002;2022-12-07T02:24:48;7.83;;;7.13;;
20423;SDS011;10371;49.042;8.002;2022-12-07T02:26:10;8.03;;;7.23;;
20423;SDS011;10371;49.042;8.002;2022-12-07T02:27:32;7.23;;;6.50;;
20423;SDS011;10371;49.042;8.002;2022-12-07T02:29:02;7.73;;;7.00;;
20423;SDS011;10371;49.042;8.002;2022-12-07T02:30:12;8.47;;;7.67;;
20423;SDS011;10371;49.042;8.002;2022-12-07T02:31:16;10.23;;;7.30;;
20423;SDS011;10371;49.042;8.002;2022-12-07T02:32:27;7.97;;;7.20;;
20423;SDS011;10371;49.042;8.002;2022-12-07T02:33:44;8.07;;;7.03;;
20423;SDS011;10371;49.042;8.002;2022-12-07T02:34:50;7.30;;;6.60;;
20423;SDS011;10371;49.042;8.002;2022-12-07T02:36:13;7.67;;;6.97;;
20423;SDS011;10371;49.042;8.002;2022-12-07T02:37:33;7.07;;;6.37;;
20423;SDS011;10371;49.042;8.002;2022-12-07T02:38:45;7.40;;;6.13;;
20423;SDS011;10371;49.042;8.002;2022-12-07T02:39:51;7.13;;;6.43;;
20423;SDS011;10371;49.042;8.002;2022-12-07T02:41:07;6.83;;;6.23;;
20423;SDS011;10371;49.042;8.002;2022-12-07T02:42:14;7.00;;;6.30;;
20423;SDS011;10371;49.042;8.002;2022-12-07T02:44:34;6.97;;;6.37;;
20423;SDS011;10371;49.042;8.002;2022-12-07T02:45:35;6.83;;;6.13;;
20423;SDS011;10371;49.042;8.002;2022-12-07T02:46:42;6.83;;;6.13;;
20423;SDS011;10371;49.042;8.002;2022-12-07T02:47:48;6.97;;;6.37;;
20423;SDS011;10371;49.042;8.002;2022-12-07T02:48:51;7.47;;;6.67;;
20423;SDS011;10371;49.042;8.002;2022-12-07T02:50:11;7.40;;;6.70;;
20423;SDS011;10371;49.042;8.002;2022-12-07T02:51:11;7.90;;;7.10;;
20423;SDS011;10371;49.042;8.002;2022-12-07T02:52:12;7.37;;;6.67;;
20423;SDS011;10371;49.042;8.002;2022-12-07T02:53:27;7.20;;;6.50;;
20423;SDS011;10371;49.042;8.002;2022-12-07T02:54:38;7.13;;;6.53;;
20423;SDS011;10371;49.042;8.002;2022-12-07T02:55:38;7.37;;;6.67;;
20423;SDS011;10371;49.042;8.002;2022-12-07T02:57:57;7.47;;;6.87;;
20423;SDS011;10371;49.042;8.002;2022-12-07T02:59:02;7.07;;;6.47;;
20423;SDS011;10371;49.042;8.002;2022-12-07T03:00:11;7.23;;;6.53;;
20423;SDS011;10371;49.042;8.002;2022-12-07T03:01:37;7.60;;;6.80;;
20423;SDS011;10371;49.042;8.002;2022-12-07T03:03:04;8.67;;;7.77;;
20423;SDS011;10371;49.042;8.002;2022-12-07T03:04:24;8.00;;;7.30;;
20423;SDS011;10371;49.042;8.002;2022-12-07T03:07:05;8.00;;;7.20;;
20423;SDS011;10371;49.042;8.002;2022-12-07T03:09:44;8.10;;;7.30;;
20423;SDS011;10371;49.042;8.002;2022-12-07T03:12:09;7.77;;;7.07;;
20423;SDS011;10371;49.042;8.002;2022-12-07T03:14:41;7.30;;;6.60;;
20423;SDS011;10371;49.042;8.002;2022-12-07T03:17:13;9.00;;;7.10;;
20423;SDS011;10371;49.042;8.002;2022-12-07T03:18:18;8.33;;;7.17;;
20423;SDS011;10371;49.042;8.002;2022-12-07T03:19:22;7.90;;;7.20;;
20423;SDS011;10371;49.042;8.002;2022-12-07T03:20:26;8.10;;;7.30;;
20423;SDS011;10371;49.042;8.002;2022-12-07T03:21:33;8.13;;;7.33;;
20423;SDS011;10371;49.042;8.002;2022-12-07T03:22:37;7.63;;;6.93;;
20423;SDS011;10371;49.042;8.002;2022-12-07T03:23:40;7.93;;;7.13;;
20423;SDS011;10371;49.042;8.002;2022-12-07T03:24:49;7.37;;;6.67;;
20423;SDS011;10371;49.042;8.002;2022-12-07T03:25:55;8.03;;;7.23;;
20423;SDS011;10371;49.042;8.002;2022-12-07T03:27:00;8.20;;;7.50;;
20423;SDS011;10371;49.042;8.002;2022-12-07T03:28:06;7.87;;;7.17;;
20423;SDS011;10371;49.042;8.002;2022-12-07T03:29:10;9.17;;;7.17;;
20423;SDS011;10371;49.042;8.002;2022-12-07T03:30:15;8.77;;;7.83;;
20423;SDS011;10371;49.042;8.002;2022-12-07T03:31:20;7.47;;;6.77;;
20423;SDS011;10371;49.042;8.002;2022-12-07T03:32:26;7.10;;;6.40;;
20423;SDS011;10371;49.042;8.002;2022-12-07T03:33:32;6.97;;;6.37;;
20423;SDS011;10371;49.042;8.002;2022-12-07T03:34:50;7.03;;;6.43;;
20423;SDS011;10371;49.042;8.002;2022-12-07T03:36:01;6.90;;;6.30;;
20423;SDS011;10371;49.042;8.002;2022-12-07T03:37:12;6.57;;;5.97;;
20423;SDS011;10371;49.042;8.002;2022-12-07T03:38:22;6.70;;;6.10;;
20423;SDS011;10371;49.042;8.002;2022-12-07T03:41:00;6.57;;;6.03;;
20423;SDS011;10371;49.042;8.002;2022-12-07T03:42:06;6.73;;;6.13;;
20423;SDS011;10371;49.042;8.002;2022-12-07T03:43:09;7.13;;;6.43;;
20423;SDS011;10371;49.042;8.002;2022-12-07T03:44:10;6.87;;;6.27;;
20423;SDS011;10371;49.042;8.002;2022-12-07T03:45:12;6.90;;;6.20;;
20423;SDS011;10371;49.042;8.002;2022-12-07T03:47:50;5.67;;;5.13;;
20423;SDS011;10371;49.042;8.002;2022-12-07T03:49:11;6.07;;;5.50;;
20423;SDS011;10371;49.042;8.002;2022-12-07T03:50:38;6.03;;;5.53;;
20423;SDS011;10371;49.042;8.002;2022-12-07T03:52:54;6.37;;;5.80;;
20423;SDS011;10371;49.042;8.002;2022-12-07T03:54:05;5.93;;;5.43;;
20423;SDS011;10371;49.042;8.002;2022-12-07T03:56:14;6.67;;;6.07;;
20423;SDS011;10371;49.042;8.002;2022-12-07T03:57:15;7.03;;;6.43;;
20423;SDS011;10371;49.042;8.002;2022-12-07T03:58:17;6.60;;;6.00;;
20423;SDS011;10371;49.042;8.002;2022-12-07T03:59:20;6.80;;;6.20;;
20423;SDS011;10371;49.042;8.002;2022-12-07T04:00:22;6.50;;;5.97;;
20423;SDS011;10371;49.042;8.002;2022-12-07T04:01:23;6.50;;;5.90;;
20423;SDS011;10371;49.042;8.002;2022-12-07T04:02:25;6.17;;;5.67;;
20423;SDS011;10371;49.042;8.002;2022-12-07T04:03:27;6.93;;;5.87;;
20423;SDS011;10371;49.042;8.002;2022-12-07T04:04:27;6.30;;;5.70;;
20423;SDS011;10371;49.042;8.002;2022-12-07T04:05:28;5.97;;;5.47;;
20423;SDS011;10371;49.042;8.002;2022-12-07T04:06:28;6.63;;;6.03;;
20423;SDS011;10371;49.042;8.002;2022-12-07T04:07:29;7.13;;;6.43;;
20423;SDS011;10371;49.042;8.002;2022-12-07T04:08:29;6.63;;;6.03;;
20423;SDS011;10371;49.042;8.002;2022-12-07T04:09:29;6.83;;;6.17;;
20423;SDS011;10371;49.042;8.002;2022-12-07T04:10:29;6.70;;;6.10;;
20423;SDS011;10371;49.042;8.002;2022-12-07T04:11:30;7.03;;;6.43;;
20423;SDS011;10371;49.042;8.002;2022-12-07T04:12:30;6.57;;;5.97;;
20423;SDS011;10371;49.042;8.002;2022-12-07T04:13:30;7.20;;;6.60;;
20423;SDS011;10371;49.042;8.002;2022-12-07T04:14:51;7.50;;;6.80;;
20423;SDS011;10371;49.042;8.002;2022-12-07T04:15:51;7.43;;;6.63;;
20423;SDS011;10371;49.042;8.002;2022-12-07T04:16:52;8.60;;;6.87;;
20423;SDS011;10371;49.042;8.002;2022-12-07T04:17:56;6.80;;;6.20;;
20423;SDS011;10371;49.042;8.002;2022-12-07T04:18:56;8.23;;;6.40;;
20423;SDS011;10371;49.042;8.002;2022-12-07T04:19:56;7.30;;;6.60;;
20423;SDS011;10371;49.042;8.002;2022-12-07T04:20:57;7.27;;;6.57;;
20423;SDS011;10371;49.042;8.002;2022-12-07T04:21:57;6.53;;;5.93;;
20423;SDS011;10371;49.042;8.002;2022-12-07T04:22:59;7.13;;;6.53;;
20423;SDS011;10371;49.042;8.002;2022-12-07T04:23:59;7.40;;;6.27;;
20423;SDS011;10371;49.042;8.002;2022-12-07T04:25:00;7.23;;;6.53;;
20423;SDS011;10371;49.042;8.002;2022-12-07T04:26:00;7.77;;;6.23;;
20423;SDS011;10371;49.042;8.002;2022-12-07T04:27:00;6.80;;;6.20;;
20423;SDS011;10371;49.042;8.002;2022-12-07T04:28:00;7.33;;;6.03;;
20423;SDS011;10371;49.042;8.002;2022-12-07T04:29:01;7.07;;;6.37;;
20423;SDS011;10371;49.042;8.002;2022-12-07T04:30:01;6.50;;;5.90;;
20423;SDS011;10371;49.042;8.002;2022-12-07T04:31:02;6.67;;;6.07;;
20423;SDS011;10371;49.042;8.002;2022-12-07T04:32:02;6.07;;;5.57;;
20423;SDS011;10371;49.042;8.002;2022-12-07T04:33:03;6.63;;;6.03;;
20423;SDS011;10371;49.042;8.002;2022-12-07T04:34:03;9.03;;;8.20;;
20423;SDS011;10371;49.042;8.002;2022-12-07T04:35:05;8.03;;;7.23;;
20423;SDS011;10371;49.042;8.002;2022-12-07T04:36:05;8.13;;;7.33;;
20423;SDS011;10371;49.042;8.002;2022-12-07T04:37:06;7.73;;;7.03;;
20423;SDS011;10371;49.042;8.002;2022-12-07T04:38:06;7.40;;;6.40;;
20423;SDS011;10371;49.042;8.002;2022-12-07T04:39:07;7.17;;;6.33;;
20423;SDS011;10371;49.042;8.002;2022-12-07T04:40:09;7.70;;;7.00;;
20423;SDS011;10371;49.042;8.002;2022-12-07T04:41:11;8.53;;;7.63;;
20423;SDS011;10371;49.042;8.002;2022-12-07T04:42:11;10.13;;;9.13;;
20423;SDS011;10371;49.042;8.002;2022-12-07T04:43:12;10.10;;;9.10;;
20423;SDS011;10371;49.042;8.002;2022-12-07T04:44:13;9.03;;;8.13;;
20423;SDS011;10371;49.042;8.002;2022-12-07T04:45:14;7.67;;;6.63;;
20423;SDS011;10371;49.042;8.002;2022-12-07T04:46:15;6.40;;;5.80;;
20423;SDS011;10371;49.042;8.002;2022-12-07T04:47:15;6.50;;;5.80;;
20423;SDS011;10371;49.042;8.002;2022-12-07T04:48:15;6.20;;;5.70;;
20423;SDS011;10371;49.042;8.002;2022-12-07T04:49:16;5.37;;;4.97;;
20423;SDS011;10371;49.042;8.002;2022-12-07T04:50:17;5.80;;;5.30;;
20423;SDS011;10371;49.042;8.002;2022-12-07T04:51:22;4.97;;;4.57;;
20423;SDS011;10371;49.042;8.002;2022-12-07T04:52:24;5.87;;;5.27;;
20423;SDS011;10371;49.042;8.002;2022-12-07T04:53:24;5.67;;;5.17;;
20423;SDS011;10371;49.042;8.002;2022-12-07T04:54:24;6.17;;;5.57;;
20423;SDS011;10371;49.042;8.002;2022-12-07T04:55:25;4.97;;;4.47;;
20423;SDS011;10371;49.042;8.002;2022-12-07T04:56:25;5.17;;;4.73;;
20423;SDS011;10371;49.042;8.002;2022-12-07T04:57:25;5.70;;;5.20;;
20423;SDS011;10371;49.042;8.002;2022-12-07T04:58:26;6.17;;;5.67;;
20423;SDS011;10371;49.042;8.002;2022-12-07T04:59:26;6.33;;;5.83;;
20423;SDS011;10371;49.042;8.002;2022-12-07T05:00:26;6.33;;;5.80;;
20423;SDS011;10371;49.042;8.002;2022-12-07T05:01:27;6.43;;;5.83;;
20423;SDS011;10371;49.042;8.002;2022-12-07T05:02:27;6.63;;;5.77;;
20423;SDS011;10371;49.042;8.002;2022-12-07T05:03:27;6.03;;;5.53;;
20423;SDS011;10371;49.042;8.002;2022-12-07T05:04:27;6.17;;;5.57;;
20423;SDS011;10371;49.042;8.002;2022-12-07T05:05:28;6.87;;;6.17;;
20423;SDS011;10371;49.042;8.002;2022-12-07T05:06:28;6.67;;;6.07;;
20423;SDS011;10371;49.042;8.002;2022-12-07T05:07:28;6.63;;;6.03;;
20423;SDS011;10371;49.042;8.002;2022-12-07T05:08:29;7.23;;;6.53;;
20423;SDS011;10371;49.042;8.002;2022-12-07T05:09:29;6.80;;;6.17;;
20423;SDS011;10371;49.042;8.002;2022-12-07T05:10:30;6.83;;;6.23;;
20423;SDS011;10371;49.042;8.002;2022-12-07T05:11:30;6.00;;;5.50;;
20423;SDS011;10371;49.042;8.002;2022-12-07T05:12:39;13.70;;;12.60;;
20423;SDS011;10371;49.042;8.002;2022-12-07T05:13:39;16.83;;;15.63;;
20423;SDS011;10371;49.042;8.002;2022-12-07T05:14:40;13.20;;;12.20;;
20423;SDS011;10371;49.042;8.002;2022-12-07T05:15:40;8.10;;;7.40;;
20423;SDS011;10371;49.042;8.002;2022-12-07T05:16:42;7.87;;;7.27;;
20423;SDS011;10371;49.042;8.002;2022-12-07T05:17:43;6.60;;;6.00;;
20423;SDS011;10371;49.042;8.002;2022-12-07T05:18:44;6.13;;;5.53;;
20423;SDS011;10371;49.042;8.002;2022-12-07T05:19:44;5.67;;;5.17;;
20423;SDS011;10371;49.042;8.002;2022-12-07T05:20:45;6.37;;;5.77;;
20423;SDS011;10371;49.042;8.002;2022-12-07T05:21:45;6.77;;;6.07;;
20423;SDS011;10371;49.042;8.002;2022-12-07T05:22:46;7.20;;;6.60;;
20423;SDS011;10371;49.042;8.002;2022-12-07T05:23:47;9.57;;;8.67;;
20423;SDS011;10371;49.042;8.002;2022-12-07T05:24:47;9.77;;;8.77;;
20423;SDS011;10371;49.042;8.002;2022-12-07T05:25:47;7.60;;;6.90;;
20423;SDS011;10371;49.042;8.002;2022-12-07T05:26:48;7.33;;;6.70;;
20423;SDS011;10371;49.042;8.002;2022-12-07T05:27:48;7.63;;;6.93;;
20423;SDS011;10371;49.042;8.002;2022-12-07T05:28:51;6.60;;;6.00;;
20423;SDS011;10371;49.042;8.002;2022-12-07T05:29:53;6.50;;;5.90;;
20423;SDS011;10371;49.042;8.002;2022-12-07T05:30:53;6.67;;;5.70;;
20423;SDS011;10371;49.042;8.002;2022-12-07T05:31:53;6.07;;;5.57;;
20423;SDS011;10371;49.042;8.002;2022-12-07T05:32:54;6.47;;;5.87;;
20423;SDS011;10371;49.042;8.002;2022-12-07T05:33:54;5.73;;;5.23;;
20423;SDS011;10371;49.042;8.002;2022-12-07T05:34:55;7.23;;;5.50;;
20423;SDS011;10371;49.042;8.002;2022-12-07T05:35:55;5.43;;;4.93;;
20423;SDS011;10371;49.042;8.002;2022-12-07T05:36:55;5.67;;;5.17;;
20423;SDS011;10371;49.042;8.002;2022-12-07T05:37:55;5.73;;;5.23;;
20423;SDS011;10371;49.042;8.002;2022-12-07T05:38:57;5.70;;;5.20;;
20423;SDS011;10371;49.042;8.002;2022-12-07T05:39:57;5.40;;;4.90;;
20423;SDS011;10371;49.042;8.002;2022-12-07T05:41:01;5.80;;;5.20;;
20423;SDS011;10371;49.042;8.002;2022-12-07T05:42:02;5.80;;;5.10;;
20423;SDS011;10371;49.042;8.002;2022-12-07T05:43:12;5.63;;;5.13;;
20423;SDS011;10371;49.042;8.002;2022-12-07T05:44:12;5.10;;;4.60;;
20423;SDS011;10371;49.042;8.002;2022-12-07T05:45:13;6.33;;;4.80;;
20423;SDS011;10371;49.042;8.002;2022-12-07T05:46:13;5.93;;;5.30;;
20423;SDS011;10371;49.042;8.002;2022-12-07T05:47:14;5.53;;;5.03;;
20423;SDS011;10371;49.042;8.002;2022-12-07T05:48:14;5.53;;;5.03;;
20423;SDS011;10371;49.042;8.002;2022-12-07T05:49:15;5.40;;;4.90;;
20423;SDS011;10371;49.042;8.002;2022-12-07T05:50:15;5.40;;;4.90;;
20423;SDS011;10371;49.042;8.002;2022-12-07T05:51:15;5.13;;;4.63;;
20423;SDS011;10371;49.042;8.002;2022-12-07T05:52:16;5.73;;;5.13;;
20423;SDS011;10371;49.042;8.002;2022-12-07T05:53:16;5.70;;;5.20;;
20423;SDS011;10371;49.042;8.002;2022-12-07T05:54:17;5.70;;;4.83;;
20423;SDS011;10371;49.042;8.002;2022-12-07T05:55:17;5.83;;;5.33;;
20423;SDS011;10371;49.042;8.002;2022-12-07T05:56:18;7.53;;;5.67;;
20423;SDS011;10371;49.042;8.002;2022-12-07T05:57:18;5.73;;;5.10;;
20423;SDS011;10371;49.042;8.002;2022-12-07T05:58:19;6.30;;;5.70;;
20423;SDS011;10371;49.042;8.002;2022-12-07T05:59:38;5.53;;;5.03;;
20423;SDS011;10371;49.042;8.002;2022-12-07T06:00:38;6.07;;;5.50;;
20423;SDS011;10371;49.042;8.002;2022-12-07T06:01:38;6.33;;;5.73;;
20423;SDS011;10371;49.042;8.002;2022-12-07T06:02:39;6.10;;;5.50;;
20423;SDS011;10371;49.042;8.002;2022-12-07T06:03:39;5.60;;;5.10;;
20423;SDS011;10371;49.042;8.002;2022-12-07T06:04:41;4.70;;;4.30;;
20423;SDS011;10371;49.042;8.002;2022-12-07T06:05:42;5.77;;;5.27;;
20423;SDS011;10371;49.042;8.002;2022-12-07T06:06:43;6.03;;;5.43;;
20423;SDS011;10371;49.042;8.002;2022-12-07T06:07:43;5.23;;;4.67;;
20423;SDS011;10371;49.042;8.002;2022-12-07T06:08:43;5.87;;;5.20;;
20423;SDS011;10371;49.042;8.002;2022-12-07T06:09:43;5.80;;;5.20;;
20423;SDS011;10371;49.042;8.002;2022-12-07T06:10:44;5.50;;;5.00;;
20423;SDS011;10371;49.042;8.002;2022-12-07T06:11:44;6.10;;;5.50;;
20423;SDS011;10371;49.042;8.002;2022-12-07T06:13:03;5.97;;;5.47;;
20423;SDS011;10371;49.042;8.002;2022-12-07T06:14:03;6.10;;;5.00;;
20423;SDS011;10371;49.042;8.002;2022-12-07T06:15:04;5.80;;;5.30;;
20423;SDS011;10371;49.042;8.002;2022-12-07T06:16:05;6.13;;;5.53;;
20423;SDS011;10371;49.042;8.002;2022-12-07T06:17:06;6.43;;;5.83;;
20423;SDS011;10371;49.042;8.002;2022-12-07T06:18:06;6.43;;;5.83;;
20423;SDS011;10371;49.042;8.002;2022-12-07T06:19:07;7.03;;;6.33;;
20423;SDS011;10371;49.042;8.002;2022-12-07T06:20:07;6.83;;;6.23;;
20423;SDS011;10371;49.042;8.002;2022-12-07T06:21:08;6.57;;;5.90;;
20423;SDS011;10371;49.042;8.002;2022-12-07T06:22:11;6.20;;;5.60;;
20423;SDS011;10371;49.042;8.002;2022-12-07T06:23:12;6.53;;;5.63;;
20423;SDS011;10371;49.042;8.002;2022-12-07T06:24:12;7.57;;;6.87;;
20423;SDS011;10371;49.042;8.002;2022-12-07T06:25:14;7.43;;;6.73;;
20423;SDS011;10371;49.042;8.002;2022-12-07T06:26:15;7.63;;;6.93;;
20423;SDS011;10371;49.042;8.002;2022-12-07T06:27:15;7.37;;;6.67;;
20423;SDS011;10371;49.042;8.002;2022-12-07T06:28:15;6.97;;;6.27;;
20423;SDS011;10371;49.042;8.002;2022-12-07T06:29:16;7.80;;;7.03;;
20423;SDS011;10371;49.042;8.002;2022-12-07T06:30:17;9.70;;;7.93;;
20423;SDS011;10371;49.042;8.002;2022-12-07T06:31:17;8.20;;;7.43;;
20423;SDS011;10371;49.042;8.002;2022-12-07T06:32:18;6.73;;;6.00;;
20423;SDS011;10371;49.042;8.002;2022-12-07T06:33:18;6.63;;;6.03;;
20423;SDS011;10371;49.042;8.002;2022-12-07T06:34:19;6.40;;;5.80;;
20423;SDS011;10371;49.042;8.002;2022-12-07T06:35:22;7.27;;;6.30;;
20423;SDS011;10371;49.042;8.002;2022-12-07T06:36:22;7.10;;;6.40;;
20423;SDS011;10371;49.042;8.002;2022-12-07T06:37:23;7.77;;;6.30;;
20423;SDS011;10371;49.042;8.002;2022-12-07T06:38:23;6.70;;;6.13;;
20423;SDS011;10371;49.042;8.002;2022-12-07T06:39:24;6.20;;;5.70;;
20423;SDS011;10371;49.042;8.002;2022-12-07T06:40:26;7.80;;;5.70;;
20423;SDS011;10371;49.042;8.002;2022-12-07T06:41:26;5.97;;;5.37;;
20423;SDS011;10371;49.042;8.002;2022-12-07T06:42:27;6.43;;;4.93;;